Victory, Kentucky
Current Conditions -  °F | °C
As of 6:53 AM on Friday 28 Nov 2014 (Local Time) from KLOZ Reporting Station
Overcast Overcast  
Wind Chill: 26°   Ceiling: 3000
Heat Index: 26°   Visibility: 10mi
Dew Point: 15°   Wind: 3mph
Humidity: 63%   Direction: 250°WSW
Pressure: 30.41"   Gusts: NA
Location:  37.2328°N, 84.1595°W
Report Text: KLOZ 281153Z AUTO 25003KT 10SM OVC030 M03/M09 A3041 RMK AO2 SLP308 T10331094 11022 21044 53007
Loading
Personal Weather Stations






























Interactive Weather Map New forecast layout! Learn more

10-Day Weather Forecast

Advertisements
Track Severe Weather on mobile